createdAt,value
2019-01-29T00:00:04.230Z,42.07
2019-01-29T00:01:04.256Z,41.96
2019-01-29T00:02:04.225Z,41.66
2019-01-29T00:03:04.198Z,42.46
2019-01-29T00:04:04.191Z,42.07
2019-01-29T00:05:04.191Z,41.88
2019-01-29T00:06:04.177Z,41.57
2019-01-29T00:07:04.152Z,42.18
2019-01-29T00:08:04.142Z,41.27
2019-01-29T00:09:04.139Z,41.55
2019-01-29T00:10:04.126Z,41.97
2019-01-29T00:11:04.159Z,41.67
2019-01-29T00:12:04.106Z,42.07
2019-01-29T00:13:04.096Z,41.47
2019-01-29T00:14:04.099Z,41.38
2019-01-29T00:15:04.069Z,41.97
2019-01-29T00:16:04.113Z,42.07
2019-01-29T00:17:04.078Z,41.38
2019-01-29T00:18:04.037Z,41.89
2019-01-29T00:19:04.032Z,41.99
2019-01-29T00:20:04.015Z,41.69
2019-01-29T00:21:04.015Z,41.89
2019-01-29T00:22:04.011Z,41.89
2019-01-29T00:23:03.987Z,41.79
2019-01-29T00:24:03.980Z,42.21
2019-01-29T00:25:03.969Z,42.90
2019-01-29T00:26:03.961Z,42.10
2019-01-29T00:27:03.966Z,42.10
2019-01-29T00:28:03.931Z,41.71
2019-01-29T00:29:03.929Z,42.32
2019-01-29T00:30:03.911Z,42.61
2019-01-29T00:31:03.900Z,42.90
2019-01-29T00:32:04.019Z,42.72
2019-01-29T00:33:03.962Z,42.61
2019-01-29T00:34:03.871Z,42.52
2019-01-29T00:35:03.860Z,42.32
2019-01-29T00:36:03.852Z,42.82
2019-01-29T00:37:03.843Z,42.72
2019-01-29T00:38:03.841Z,42.21
2019-01-29T00:39:03.831Z,42.21
2019-01-29T00:40:03.803Z,42.72
2019-01-29T00:41:03.796Z,42.24
2019-01-29T00:42:03.786Z,42.52
2019-01-29T00:43:03.785Z,42.21
2019-01-29T00:44:03.763Z,42.52
2019-01-29T00:45:03.757Z,42.54
2019-01-29T00:46:03.743Z,42.13
2019-01-29T00:47:03.757Z,42.13
2019-01-29T00:48:03.735Z,42.74
2019-01-29T00:49:03.708Z,42.24
2019-01-29T00:50:03.699Z,42.54
2019-01-29T00:51:03.688Z,42.44
2019-01-29T00:52:03.676Z,42.13
2019-01-29T00:53:03.686Z,42.74
2019-01-29T00:54:03.671Z,42.74
2019-01-29T00:55:03.647Z,42.83
2019-01-29T00:56:03.637Z,42.74
2019-01-29T00:57:03.647Z,42.44
2019-01-29T00:58:03.644Z,42.24
2019-01-29T00:59:03.610Z,42.13
2019-01-29T01:00:03.593Z,42.83
2019-01-29T01:01:03.589Z,42.44
2019-01-29T01:02:03.575Z,42.33
2019-01-29T01:03:03.562Z,43.74
2019-01-29T01:04:03.565Z,42.54
2019-01-29T01:05:03.555Z,43.14
2019-01-29T01:06:03.530Z,42.55
2019-01-29T01:07:03.520Z,42.33
2019-01-29T01:08:03.509Z,43.24
2019-01-29T01:09:03.528Z,42.24
2019-01-29T01:10:03.499Z,42.46
2019-01-29T01:11:03.480Z,43.16
2019-01-29T01:12:03.487Z,43.04
2019-01-29T01:13:03.462Z,42.44
2019-01-29T01:14:03.456Z,42.25
2019-01-29T01:15:03.433Z,42.54
2019-01-29T01:16:03.420Z,42.55
2019-01-29T01:17:03.415Z,42.33
2019-01-29T01:18:03.400Z,43.36
2019-01-29T01:19:03.423Z,42.54
2019-01-29T01:20:03.382Z,42.74
2019-01-29T01:21:03.371Z,42.76
2019-01-29T01:22:03.371Z,42.24
2019-01-29T01:23:03.347Z,42.24
2019-01-29T01:24:03.341Z,42.55
2019-01-29T01:25:03.356Z,42.76
2019-01-29T01:26:03.320Z,42.05
2019-01-29T01:27:03.313Z,43.16
2019-01-29T01:28:03.296Z,42.25
2019-01-29T01:29:03.287Z,42.55
2019-01-29T01:30:03.289Z,42.46
2019-01-29T01:31:03.268Z,43.06
2019-01-29T01:32:03.262Z,42.96
2019-01-29T01:33:03.244Z,43.26
2019-01-29T01:34:03.233Z,43.08
2019-01-29T01:35:03.240Z,43.98
2019-01-29T01:36:03.222Z,43.66
2019-01-29T01:37:03.203Z,43.68
2019-01-29T01:38:03.226Z,43.68
2019-01-29T01:39:03.179Z,43.68
2019-01-29T01:40:03.194Z,43.58
2019-01-29T01:41:03.175Z,43.58
2019-01-29T01:42:03.158Z,43.58
2019-01-29T01:43:03.137Z,43.60
2019-01-29T01:44:03.133Z,43.90
2019-01-29T01:45:03.147Z,43.80
2019-01-29T01:46:03.108Z,43.70
2019-01-29T01:47:03.098Z,43.50
2019-01-29T01:48:03.084Z,43.50
2019-01-29T01:49:03.070Z,43.70
2019-01-29T01:50:03.064Z,44.10
2019-01-29T01:51:03.069Z,44.00
2019-01-29T01:52:03.046Z,43.48
2019-01-29T01:53:03.047Z,43.18
2019-01-29T01:54:03.066Z,43.58
2019-01-29T01:55:03.012Z,42.16
2019-01-29T01:56:03.012Z,42.76
2019-01-29T01:57:03.002Z,43.16
2019-01-29T01:58:02.980Z,42.24
2019-01-29T01:59:02.975Z,42.33
2019-01-29T02:00:02.959Z,41.61
2019-01-29T02:01:02.967Z,42.11
2019-01-29T02:02:02.951Z,41.51
2019-01-29T02:03:02.935Z,41.41
2019-01-29T02:04:02.926Z,40.89
2019-01-29T02:05:02.904Z,41.79
2019-01-29T02:06:02.917Z,41.79
2019-01-29T02:07:02.887Z,41.60
2019-01-29T02:08:02.886Z,40.59
2019-01-29T02:09:02.874Z,41.49
2019-01-29T02:10:02.852Z,40.89
2019-01-29T02:11:02.847Z,40.91
2019-01-29T02:12:02.855Z,41.39
2019-01-29T02:13:02.837Z,40.91
2019-01-29T02:14:02.810Z,41.51
2019-01-29T02:15:02.807Z,40.49
2019-01-29T02:16:02.800Z,40.69
2019-01-29T02:17:02.796Z,41.11
2019-01-29T02:18:02.769Z,40.89
2019-01-29T02:19:02.760Z,41.49
2019-01-29T02:20:02.749Z,41.69
2019-01-29T02:21:02.750Z,40.89
2019-01-29T02:22:02.735Z,41.49
2019-01-29T02:23:07.851Z,41.49
2019-01-29T02:24:03.701Z,40.89
2019-01-29T02:25:02.694Z,40.89
2019-01-29T02:26:02.689Z,41.61
2019-01-29T02:27:02.684Z,41.39
2019-01-29T02:28:02.660Z,41.31
2019-01-29T02:29:02.654Z,40.71
2019-01-29T02:30:02.648Z,41.49
2019-01-29T02:31:02.631Z,40.91
2019-01-29T02:32:02.642Z,41.11
2019-01-29T02:33:02.620Z,40.71
2019-01-29T02:34:02.599Z,41.31
2019-01-29T02:35:02.590Z,41.71
2019-01-29T02:36:02.577Z,40.91
2019-01-29T02:37:02.580Z,41.21
2019-01-29T02:38:02.569Z,41.82
2019-01-29T02:39:02.548Z,41.51
2019-01-29T02:40:02.534Z,41.21
2019-01-29T02:41:02.523Z,41.82
2019-01-29T02:42:02.517Z,41.11
2019-01-29T02:43:02.521Z,41.41
2019-01-29T02:44:02.497Z,41.41
2019-01-29T02:45:02.489Z,41.11
2019-01-29T02:46:02.498Z,41.31
2019-01-29T02:47:02.461Z,41.11
2019-01-29T02:48:02.469Z,41.61
2019-01-29T02:49:02.438Z,40.71
2019-01-29T02:50:02.447Z,41.61
2019-01-29T02:51:02.417Z,41.61
2019-01-29T02:52:02.412Z,41.74
2019-01-29T02:53:02.408Z,40.91
2019-01-29T02:54:02.387Z,41.21
2019-01-29T02:55:02.375Z,41.53
2019-01-29T02:56:02.365Z,41.51
2019-01-29T02:57:02.352Z,41.13
2019-01-29T02:58:02.353Z,41.83
2019-01-29T02:59:02.332Z,41.43
2019-01-29T03:00:02.342Z,41.93
2019-01-29T03:01:02.321Z,41.53
2019-01-29T03:02:02.300Z,41.63
2019-01-29T03:03:02.312Z,41.74
2019-01-29T03:04:02.314Z,40.93
2019-01-29T03:05:02.272Z,41.23
2019-01-29T03:06:02.260Z,41.51
2019-01-29T03:07:02.250Z,41.43
2019-01-29T03:08:02.250Z,40.73
2019-01-29T03:09:02.233Z,41.63
2019-01-29T03:10:02.220Z,41.33
2019-01-29T03:11:02.207Z,40.83
2019-01-29T03:12:02.203Z,40.93
2019-01-29T03:13:02.205Z,41.63
2019-01-29T03:14:02.175Z,41.33
2019-01-29T03:15:02.167Z,41.43
2019-01-29T03:16:02.153Z,41.33
2019-01-29T03:17:02.160Z,41.53
2019-01-29T03:18:02.141Z,41.33
2019-01-29T03:19:02.132Z,41.63
2019-01-29T03:20:02.117Z,40.73
2019-01-29T03:21:02.106Z,41.13
2019-01-29T03:22:02.092Z,41.23
2019-01-29T03:23:02.090Z,41.83
2019-01-29T03:24:02.069Z,41.13
2019-01-29T03:25:02.055Z,41.13
2019-01-29T03:26:02.084Z,41.43
2019-01-29T03:27:02.035Z,41.93
2019-01-29T03:28:02.048Z,41.23
2019-01-29T03:29:02.018Z,40.93
2019-01-29T03:30:02.045Z,41.63
2019-01-29T03:31:02.003Z,41.63
2019-01-29T03:32:02.010Z,41.13
2019-01-29T03:33:02.039Z,41.13
2019-01-29T03:34:01.975Z,41.43
2019-01-29T03:35:02.387Z,41.85
2019-01-29T03:36:01.939Z,41.53
2019-01-29T03:37:01.933Z,41.13
2019-01-29T03:38:01.926Z,41.43
2019-01-29T03:39:01.943Z,41.13
2019-01-29T03:40:01.896Z,41.63
2019-01-29T03:41:01.912Z,41.35
2019-01-29T03:42:01.875Z,41.55
2019-01-29T03:43:01.865Z,41.75
2019-01-29T03:44:01.872Z,41.85
2019-01-29T03:45:01.849Z,41.15
2019-01-29T03:46:01.851Z,41.25
2019-01-29T03:47:01.831Z,41.35
2019-01-29T03:48:01.880Z,40.95
2019-01-29T03:49:01.818Z,41.75
2019-01-29T03:50:01.806Z,41.85
2019-01-29T03:51:01.785Z,41.15
2019-01-29T03:52:01.776Z,41.85
2019-01-29T03:53:01.765Z,41.77
2019-01-29T03:54:01.766Z,41.87
2019-01-29T03:55:01.744Z,41.67
2019-01-29T03:56:01.736Z,41.87
2019-01-29T03:57:01.725Z,41.17
2019-01-29T03:58:01.713Z,41.67
2019-01-29T03:59:01.718Z,41.37
2019-01-29T04:00:01.693Z,41.47
2019-01-29T04:01:01.696Z,42.07
2019-01-29T04:02:01.667Z,42.18
2019-01-29T04:03:01.666Z,42.19
2019-01-29T04:04:01.650Z,41.49
2019-01-29T04:05:01.648Z,41.99
2019-01-29T04:06:01.623Z,41.99
2019-01-29T04:07:01.613Z,41.99
2019-01-29T04:08:01.611Z,41.79
2019-01-29T04:09:01.597Z,42.41
2019-01-29T04:10:01.598Z,42.32
2019-01-29T04:11:01.572Z,41.91
2019-01-29T04:12:01.559Z,41.91
2019-01-29T04:13:01.564Z,43.02
2019-01-29T04:14:01.540Z,43.02
2019-01-29T04:15:01.539Z,43.02
2019-01-29T04:16:01.524Z,42.21
2019-01-29T04:17:01.511Z,41.82
2019-01-29T04:18:01.507Z,42.32
2019-01-29T04:19:01.496Z,42.21
2019-01-29T04:20:01.504Z,42.11
2019-01-29T04:21:01.463Z,41.99
2019-01-29T04:22:01.461Z,41.99
2019-01-29T04:23:01.479Z,42.27
2019-01-29T04:24:01.446Z,41.77
2019-01-29T04:25:01.460Z,41.47
2019-01-29T04:26:01.414Z,40.95
2019-01-29T04:27:01.410Z,40.73
2019-01-29T04:28:01.399Z,40.83
2019-01-29T04:29:01.382Z,40.81
2019-01-29T04:30:01.395Z,40.31
2019-01-29T04:31:01.357Z,40.09
2019-01-29T04:32:01.351Z,39.91
2019-01-29T04:33:01.340Z,40.01
2019-01-29T04:34:01.330Z,39.99
2019-01-29T04:35:01.344Z,39.18
2019-01-29T04:36:01.309Z,39.39
2019-01-29T04:37:01.298Z,38.87
2019-01-29T04:38:01.287Z,38.57
2019-01-29T04:39:01.274Z,38.47
2019-01-29T04:40:01.276Z,38.05
2019-01-29T04:41:01.257Z,37.75
2019-01-29T04:42:01.247Z,38.95
2019-01-29T04:43:01.242Z,37.75
2019-01-29T04:44:01.224Z,37.45
2019-01-29T04:45:01.228Z,37.63
2019-01-29T04:46:01.203Z,37.63
2019-01-29T04:47:01.197Z,38.13
2019-01-29T04:48:01.188Z,37.83
2019-01-29T04:49:01.170Z,37.65
2019-01-29T04:50:01.172Z,37.95
2019-01-29T04:51:01.152Z,37.75
2019-01-29T04:52:01.136Z,38.27
2019-01-29T04:53:01.133Z,38.27
2019-01-29T04:54:01.115Z,39.35
2019-01-29T04:55:01.131Z,38.85
2019-01-29T04:56:01.094Z,38.65
2019-01-29T04:57:01.095Z,38.05
2019-01-29T04:58:01.073Z,38.75
2019-01-29T04:59:01.063Z,38.97
2019-01-29T05:00:01.052Z,38.37
2019-01-29T05:01:01.061Z,38.87
2019-01-29T05:02:01.038Z,38.67
2019-01-29T05:03:01.031Z,38.18
2019-01-29T05:04:01.012Z,38.79
2019-01-29T05:05:01.008Z,38.39
2019-01-29T05:06:01.002Z,39.29
2019-01-29T05:07:00.976Z,39.40
2019-01-29T05:08:00.975Z,39.11
2019-01-29T05:09:00.956Z,39.31
2019-01-29T05:10:00.951Z,38.31
2019-01-29T05:11:00.948Z,39.21
2019-01-29T05:12:00.936Z,39.51
2019-01-29T05:13:00.916Z,39.40
2019-01-29T05:14:00.937Z,39.61
2019-01-29T05:15:00.890Z,39.91
2019-01-29T05:16:00.900Z,39.51
2019-01-29T05:17:00.874Z,40.01
2019-01-29T05:18:00.870Z,39.40
2019-01-29T05:19:00.854Z,40.31
2019-01-29T05:20:00.936Z,39.73
2019-01-29T05:21:00.843Z,39.93
2019-01-29T05:22:00.819Z,39.73
2019-01-29T05:23:00.813Z,40.13
2019-01-29T05:24:06.705Z,40.03
2019-01-29T05:25:01.782Z,40.93
2019-01-29T05:26:00.798Z,40.43
2019-01-29T05:27:00.788Z,40.93
2019-01-29T05:28:00.756Z,40.53
2019-01-29T05:29:00.746Z,41.13
2019-01-29T05:30:00.737Z,41.23
2019-01-29T05:31:00.742Z,39.93
2019-01-29T05:32:00.713Z,41.13
2019-01-29T05:33:00.708Z,40.83
2019-01-29T05:34:00.708Z,40.83
2019-01-29T05:35:00.701Z,41.03
2019-01-29T05:36:00.697Z,41.03
2019-01-29T05:37:00.667Z,40.83
2019-01-29T05:38:00.659Z,40.75
2019-01-29T05:39:00.641Z,40.83
2019-01-29T05:40:00.628Z,41.05
2019-01-29T05:41:00.617Z,40.75
2019-01-29T05:42:00.626Z,40.95
2019-01-29T05:43:00.599Z,40.85
2019-01-29T05:44:00.587Z,40.55
2019-01-29T05:45:00.580Z,40.75
2019-01-29T05:46:00.564Z,41.05
2019-01-29T05:47:00.571Z,40.75
2019-01-29T05:48:00.548Z,40.85
2019-01-29T05:49:00.544Z,40.97
2019-01-29T05:50:00.528Z,41.87
2019-01-29T05:51:00.525Z,41.87
2019-01-29T05:52:00.517Z,41.37
2019-01-29T05:53:00.488Z,41.37
2019-01-29T05:54:00.482Z,42.18
2019-01-29T05:55:00.471Z,41.67
2019-01-29T05:56:00.459Z,42.58
2019-01-29T05:57:00.471Z,42.18
2019-01-29T05:58:00.439Z,41.97
2019-01-29T05:59:00.435Z,42.78
2019-01-29T06:00:00.424Z,42.55
2019-01-29T06:01:00.405Z,42.58
2019-01-29T06:02:00.409Z,42.97
2019-01-29T06:03:00.387Z,43.38
2019-01-29T06:04:00.384Z,43.58
2019-01-29T06:05:00.366Z,43.48
2019-01-29T06:06:00.357Z,44.51
2019-01-29T06:07:00.371Z,43.80
2019-01-29T06:08:00.337Z,44.40
2019-01-29T06:09:00.328Z,44.51
2019-01-29T06:10:00.318Z,44.31
2019-01-29T06:11:00.299Z,43.88
2019-01-29T06:12:00.321Z,43.38
2019-01-29T06:13:00.389Z,42.27
2019-01-29T06:14:00.273Z,42.88
2019-01-29T06:15:00.261Z,42.16
2019-01-29T06:16:00.251Z,42.55
2019-01-29T06:17:00.263Z,42.35
2019-01-29T06:18:00.241Z,41.85
2019-01-29T06:19:00.214Z,41.75
2019-01-29T06:20:00.230Z,41.85
2019-01-29T06:21:00.198Z,41.93
2019-01-29T06:22:00.202Z,41.74
2019-01-29T06:23:00.186Z,42.33
2019-01-29T06:24:00.170Z,41.43
2019-01-29T06:25:00.212Z,41.13
2019-01-29T06:26:00.148Z,41.74
2019-01-29T06:27:00.149Z,41.31
2019-01-29T06:28:00.132Z,41.71
2019-01-29T06:29:00.113Z,41.51
2019-01-29T06:30:00.183Z,41.31
2019-01-29T06:31:00.095Z,41.01
2019-01-29T06:32:00.103Z,41.11
2019-01-29T06:33:00.070Z,41.21
2019-01-29T06:34:00.066Z,40.91
2019-01-29T06:35:00.059Z,41.69
2019-01-29T06:36:00.041Z,41.21
2019-01-29T06:37:00.039Z,40.69
2019-01-29T06:38:00.031Z,41.60
2019-01-29T06:39:00.011Z,41.49
2019-01-29T06:40:00.011Z,38.37
2019-01-29T06:40:59.984Z,37.38
2019-01-29T06:41:59.975Z,34.48
2019-01-29T06:42:59.986Z,35.38
2019-01-29T06:43:59.957Z,35.68
2019-01-29T06:44:59.947Z,35.98
2019-01-29T06:45:59.939Z,36.18
2019-01-29T06:46:59.917Z,36.70
2019-01-29T06:47:59.933Z,37.00
2019-01-29T06:48:59.900Z,36.28
2019-01-29T06:49:59.887Z,36.60
2019-01-29T06:50:59.878Z,37.68
2019-01-29T06:51:59.870Z,37.40
2019-01-29T06:52:59.875Z,37.40
2019-01-29T06:53:59.845Z,37.68
2019-01-29T06:54:59.834Z,37.10
2019-01-29T06:55:59.824Z,37.30
2019-01-29T06:56:59.813Z,38.10
2019-01-29T06:57:59.818Z,37.68
2019-01-29T06:58:59.794Z,37.18
2019-01-29T06:59:59.794Z,37.68
2019-01-29T07:00:59.771Z,39.69
2019-01-29T07:01:59.767Z,40.99
2019-01-29T07:02:59.767Z,41.49
2019-01-29T07:03:59.739Z,41.69
2019-01-29T07:04:59.730Z,42.47
2019-01-29T07:05:59.719Z,42.47
2019-01-29T07:06:59.708Z,42.47
2019-01-29T07:07:59.715Z,42.47
2019-01-29T07:08:59.684Z,41.67
2019-01-29T07:09:59.677Z,41.97
2019-01-29T07:10:59.661Z,41.67
2019-01-29T07:11:59.655Z,41.67
2019-01-29T07:12:59.671Z,41.75
2019-01-29T07:13:59.632Z,41.38
2019-01-29T07:14:59.624Z,41.25
2019-01-29T07:15:59.615Z,41.77
2019-01-29T07:16:59.602Z,41.46
2019-01-29T07:17:59.587Z,40.65
2019-01-29T07:18:59.597Z,40.85
2019-01-29T07:19:59.573Z,41.85
2019-01-29T07:20:59.562Z,40.75
2019-01-29T07:21:59.548Z,40.85
2019-01-29T07:22:59.537Z,40.35
2019-01-29T07:23:59.543Z,40.65
2019-01-29T07:24:59.513Z,41.05
2019-01-29T07:25:59.507Z,40.65
2019-01-29T07:26:59.493Z,40.35
2019-01-29T07:27:59.484Z,39.85
2019-01-29T07:28:59.490Z,40.65
2019-01-29T07:29:59.465Z,40.15
2019-01-29T07:30:59.459Z,39.85
2019-01-29T07:31:59.453Z,39.65
2019-01-29T07:32:59.432Z,40.05
2019-01-29T07:33:59.446Z,40.65
2019-01-29T07:34:59.415Z,40.85
2019-01-29T07:35:59.403Z,40.35
2019-01-29T07:36:59.385Z,41.25
2019-01-29T07:37:59.381Z,40.35
2019-01-29T07:38:59.381Z,40.45
2019-01-29T07:39:59.399Z,39.55
2019-01-29T07:40:59.353Z,39.75
2019-01-29T07:41:59.343Z,40.75
2019-01-29T07:42:59.334Z,41.35
2019-01-29T07:43:59.333Z,42.46
2019-01-29T07:44:59.305Z,42.16
2019-01-29T07:45:59.297Z,42.16
2019-01-29T07:46:59.286Z,42.16
2019-01-29T07:47:59.280Z,42.25
2019-01-29T07:48:59.292Z,42.05
2019-01-29T07:49:59.259Z,41.96
2019-01-29T07:50:59.243Z,42.46
2019-01-29T07:51:59.240Z,42.66
2019-01-29T07:52:59.231Z,41.75
2019-01-29T07:53:59.220Z,42.76
2019-01-29T07:54:59.226Z,43.05
2019-01-29T07:55:59.197Z,42.16
2019-01-29T07:56:59.190Z,42.16
2019-01-29T07:57:59.177Z,42.55
2019-01-29T07:58:59.169Z,41.85
2019-01-29T07:59:59.186Z,42.35
2019-01-29T08:00:59.145Z,42.38
2019-01-29T08:01:59.143Z,42.18
2019-01-29T08:02:59.133Z,42.97
2019-01-29T08:03:59.115Z,42.88
2019-01-29T08:04:59.120Z,43.68
2019-01-29T08:05:59.097Z,42.99
2019-01-29T08:06:59.087Z,42.80
2019-01-29T08:07:59.076Z,43.30
2019-01-29T08:08:59.068Z,42.40
2019-01-29T08:09:59.064Z,43.19
2019-01-29T08:10:59.040Z,42.90
2019-01-29T08:11:59.037Z,42.49
2019-01-29T08:12:59.031Z,41.79
2019-01-29T08:13:59.011Z,41.89
2019-01-29T08:14:59.013Z,41.60
2019-01-29T08:15:58.997Z,41.79
2019-01-29T08:16:58.981Z,41.49
2019-01-29T08:17:58.974Z,41.67
2019-01-29T08:18:58.967Z,41.60
2019-01-29T08:19:58.978Z,41.67
2019-01-29T08:20:58.940Z,41.57
2019-01-29T08:21:58.942Z,41.38
2019-01-29T08:22:58.926Z,41.77
2019-01-29T08:23:58.918Z,41.67
2019-01-29T08:25:01.655Z,41.88
2019-01-29T08:25:58.890Z,41.77
2019-01-29T08:26:58.880Z,41.57
2019-01-29T08:27:58.877Z,41.77
2019-01-29T08:28:59.862Z,41.47
2019-01-29T08:29:58.859Z,41.67
2019-01-29T08:30:58.839Z,41.17
2019-01-29T08:31:58.833Z,41.77
2019-01-29T08:32:58.817Z,41.67
2019-01-29T08:33:58.808Z,41.47
2019-01-29T08:34:58.827Z,41.67
2019-01-29T08:35:58.785Z,41.67
2019-01-29T08:36:58.780Z,41.77
2019-01-29T08:37:58.767Z,41.47
2019-01-29T08:38:58.752Z,41.57
2019-01-29T08:39:58.745Z,41.07
2019-01-29T08:40:58.762Z,41.07
2019-01-29T08:41:58.724Z,41.57
2019-01-29T08:42:58.717Z,41.27
2019-01-29T08:43:58.699Z,40.37
2019-01-29T08:44:58.690Z,41.57
2019-01-29T08:45:59.545Z,41.38
2019-01-29T08:46:58.672Z,40.37
2019-01-29T08:47:58.669Z,40.77
2019-01-29T08:48:58.646Z,40.87
2019-01-29T08:49:58.637Z,41.47
2019-01-29T08:50:58.641Z,40.77
2019-01-29T08:51:58.621Z,40.87
2019-01-29T08:52:58.610Z,40.77
2019-01-29T08:53:58.600Z,40.97
2019-01-29T08:54:58.582Z,41.07
2019-01-29T08:55:58.590Z,41.27
2019-01-29T08:56:58.572Z,41.67
2019-01-29T08:57:58.574Z,41.47
2019-01-29T08:58:58.543Z,40.47
2019-01-29T08:59:58.532Z,40.67
2019-01-29T09:00:58.538Z,40.77
2019-01-29T09:01:58.517Z,40.77
2019-01-29T09:02:58.501Z,40.25
2019-01-29T09:03:58.494Z,40.97
2019-01-29T09:04:58.491Z,40.77
2019-01-29T09:05:58.498Z,40.77
2019-01-29T09:06:58.461Z,40.97
2019-01-29T09:07:58.455Z,40.07
2019-01-29T09:08:58.449Z,40.77
2019-01-29T09:09:58.429Z,39.77
2019-01-29T09:10:58.456Z,40.25
2019-01-29T09:11:58.418Z,39.95
2019-01-29T09:12:58.402Z,39.87
2019-01-29T09:13:58.396Z,39.75
2019-01-29T09:14:58.381Z,39.67
2019-01-29T09:15:58.384Z,39.57
2019-01-29T09:16:58.402Z,40.05
2019-01-29T09:17:58.350Z,40.25
2019-01-29T09:18:58.338Z,39.77
2019-01-29T09:19:58.328Z,39.75
2019-01-29T09:20:58.318Z,39.65
2019-01-29T09:21:58.321Z,39.65
2019-01-29T09:22:58.300Z,39.95
2019-01-29T09:23:58.288Z,39.45
2019-01-29T09:24:58.282Z,39.25
2019-01-29T09:25:58.268Z,38.45
2019-01-29T09:26:58.271Z,39.15
2019-01-29T09:27:58.245Z,39.65
2019-01-29T09:28:58.239Z,38.95
2019-01-29T09:29:58.219Z,38.85
2019-01-29T09:30:58.211Z,38.75
2019-01-29T09:31:58.230Z,38.83
2019-01-29T09:32:58.190Z,38.45
2019-01-29T09:33:58.181Z,38.43
2019-01-29T09:34:58.170Z,38.45
2019-01-29T09:35:58.166Z,38.65
2019-01-29T09:36:58.151Z,38.65
2019-01-29T09:37:58.150Z,38.95
2019-01-29T09:38:58.151Z,38.75
2019-01-29T09:39:58.114Z,38.75
2019-01-29T09:40:58.113Z,38.63
2019-01-29T09:41:58.094Z,38.33
2019-01-29T09:42:58.096Z,37.83
2019-01-29T09:43:58.075Z,38.63
2019-01-29T09:44:58.064Z,38.13
2019-01-29T09:45:58.051Z,37.73
2019-01-29T09:46:58.138Z,37.23
2019-01-29T09:47:58.044Z,38.43
2019-01-29T09:48:58.020Z,37.93
2019-01-29T09:49:58.004Z,37.43
2019-01-29T09:50:57.997Z,37.63
2019-01-29T09:51:57.992Z,37.83
2019-01-29T09:52:57.999Z,37.81
2019-01-29T09:53:57.966Z,38.33
2019-01-29T09:54:57.956Z,38.03
2019-01-29T09:55:57.953Z,38.63
2019-01-29T09:56:57.929Z,38.73
2019-01-29T09:57:57.938Z,38.93
2019-01-29T09:58:57.907Z,38.93
2019-01-29T09:59:57.896Z,38.43
2019-01-29T10:00:57.895Z,40.23
2019-01-29T10:01:57.883Z,39.53
2019-01-29T10:02:57.886Z,38.83
2019-01-29T10:03:57.872Z,39.93
2019-01-29T10:04:57.851Z,39.43
2019-01-29T10:05:57.831Z,40.25
2019-01-29T10:06:57.823Z,39.43
2019-01-29T10:07:57.831Z,39.55
2019-01-29T10:08:57.810Z,39.93
2019-01-29T10:09:57.802Z,39.55
2019-01-29T10:10:57.776Z,39.85
2019-01-29T10:11:57.769Z,39.85
2019-01-29T10:12:57.758Z,39.85
2019-01-29T10:13:57.760Z,40.65
2019-01-29T10:14:57.735Z,39.75
2019-01-29T10:15:57.873Z,39.55
2019-01-29T10:16:57.715Z,40.25
2019-01-29T10:17:57.704Z,39.85
2019-01-29T10:18:57.706Z,39.65
2019-01-29T10:20:02.741Z,40.93
2019-01-29T10:20:58.671Z,40.55
2019-01-29T10:21:57.663Z,41.05
2019-01-29T10:22:57.645Z,40.25
2019-01-29T10:23:57.651Z,41.15
2019-01-29T10:24:57.625Z,40.95
2019-01-29T10:25:57.612Z,40.85
2019-01-29T10:26:57.642Z,40.67
2019-01-29T10:27:57.603Z,40.67
2019-01-29T10:28:57.618Z,41.57
2019-01-29T10:29:57.575Z,40.87
2019-01-29T10:30:57.561Z,40.97
2019-01-29T10:31:57.558Z,41.19
2019-01-29T10:32:57.547Z,41.69
2019-01-29T10:33:57.535Z,41.49
2019-01-29T10:34:57.537Z,40.87
2019-01-29T10:35:57.512Z,41.17
2019-01-29T10:36:57.500Z,40.57
2019-01-29T10:37:57.491Z,40.55
2019-01-29T10:38:57.484Z,41.05
2019-01-29T10:39:57.482Z,40.65
2019-01-29T10:40:57.459Z,40.67
2019-01-29T10:41:57.460Z,40.85
2019-01-29T10:42:57.436Z,40.77
2019-01-29T10:43:57.429Z,40.45
2019-01-29T10:44:57.440Z,41.05
2019-01-29T10:45:57.408Z,41.05
2019-01-29T10:46:57.393Z,40.65
2019-01-29T10:47:57.389Z,40.75
2019-01-29T10:48:57.381Z,40.95
2019-01-29T10:49:57.380Z,41.25
2019-01-29T10:50:57.363Z,41.05
2019-01-29T10:51:57.345Z,41.25
2019-01-29T10:52:57.335Z,40.95
2019-01-29T10:53:57.330Z,41.25
2019-01-29T10:54:58.121Z,39.85
2019-01-29T10:55:57.340Z,40.25
2019-01-29T10:56:57.305Z,39.55
2019-01-29T10:57:57.290Z,39.95
2019-01-29T10:58:57.274Z,39.75
2019-01-29T10:59:57.267Z,39.55
2019-01-29T11:00:57.268Z,40.55
2019-01-29T11:01:57.235Z,40.85
2019-01-29T11:02:57.232Z,39.75
2019-01-29T11:03:57.217Z,41.13
2019-01-29T11:04:57.404Z,39.73
2019-01-29T11:05:57.280Z,39.53
2019-01-29T11:06:57.183Z,39.73
2019-01-29T11:07:57.175Z,40.43
2019-01-29T11:08:57.161Z,40.93
2019-01-29T11:09:57.145Z,40.63
2019-01-29T11:10:57.161Z,41.03
2019-01-29T11:11:57.124Z,40.73
2019-01-29T11:12:57.121Z,40.63
2019-01-29T11:13:57.108Z,40.83
2019-01-29T11:14:57.166Z,40.73
2019-01-29T11:15:57.096Z,40.33
2019-01-29T11:16:57.084Z,40.63
2019-01-29T11:17:57.069Z,40.73
2019-01-29T11:19:03.193Z,40.93
2019-01-29T11:19:58.034Z,41.33
2019-01-29T11:20:57.052Z,41.33
2019-01-29T11:21:57.023Z,40.73
2019-01-29T11:22:57.007Z,40.63
2019-01-29T11:23:56.991Z,40.73
2019-01-29T11:24:56.992Z,40.93
2019-01-29T11:25:56.997Z,41.52
2019-01-29T11:26:56.968Z,40.91
2019-01-29T11:27:56.952Z,40.31
2019-01-29T11:28:56.952Z,41.02
2019-01-29T11:29:56.936Z,40.83
2019-01-29T11:30:56.946Z,40.61
2019-01-29T11:31:56.910Z,40.83
2019-01-29T11:32:56.896Z,40.63
2019-01-29T11:33:56.896Z,41.61
2019-01-29T11:34:56.878Z,40.81
2019-01-29T11:35:56.868Z,41.41
2019-01-29T11:36:56.874Z,41.43
2019-01-29T11:37:56.842Z,41.24
2019-01-29T11:38:56.834Z,40.63
2019-01-29T11:39:56.825Z,41.33
2019-01-29T11:40:56.815Z,41.52
2019-01-29T11:41:56.818Z,41.21
2019-01-29T11:42:56.794Z,41.02
2019-01-29T11:43:56.779Z,41.33
2019-01-29T11:44:56.767Z,40.81
2019-01-29T11:45:56.754Z,41.74
2019-01-29T11:46:56.757Z,41.11
2019-01-29T11:47:56.735Z,41.82
2019-01-29T11:48:56.724Z,41.21
2019-01-29T11:49:56.714Z,41.21
2019-01-29T11:50:56.709Z,40.81
2019-01-29T11:51:56.709Z,41.31
2019-01-29T11:52:56.706Z,41.31
2019-01-29T11:53:56.667Z,41.41
2019-01-29T11:54:56.664Z,40.81
2019-01-29T11:56:04.318Z,41.41
2019-01-29T11:56:57.652Z,41.11
2019-01-29T11:57:56.637Z,41.91
2019-01-29T11:58:56.620Z,41.52
2019-01-29T11:59:56.609Z,41.02
2019-01-29T12:00:56.596Z,40.89
2019-01-29T12:01:56.609Z,41.49
2019-01-29T12:02:56.577Z,40.69
2019-01-29T12:03:56.566Z,40.69
2019-01-29T12:04:56.554Z,40.88
2019-01-29T12:05:56.543Z,40.89
2019-01-29T12:06:56.536Z,40.47
2019-01-29T12:07:56.539Z,40.58
2019-01-29T12:08:56.580Z,39.48
2019-01-29T12:09:56.697Z,40.88
2019-01-29T12:10:56.520Z,40.88
2019-01-29T12:11:56.483Z,40.28
2019-01-29T12:12:56.486Z,40.88
2019-01-29T12:13:56.461Z,40.17
2019-01-29T12:14:56.455Z,40.47
2019-01-29T12:15:56.443Z,40.28
2019-01-29T12:16:56.441Z,40.97
2019-01-29T12:17:56.430Z,41.17
2019-01-29T12:18:58.331Z,40.28
2019-01-29T12:19:56.403Z,40.28
2019-01-29T12:20:56.391Z,40.58
2019-01-29T12:21:56.391Z,40.97
2019-01-29T12:22:56.394Z,40.37
2019-01-29T12:23:56.355Z,40.78
2019-01-29T12:24:56.347Z,39.78
2019-01-29T12:25:56.333Z,40.47
2019-01-29T12:26:56.322Z,40.58
2019-01-29T12:27:56.317Z,41.05
2019-01-29T12:28:56.316Z,40.06
2019-01-29T12:29:56.299Z,40.97
2019-01-29T12:30:56.282Z,40.37
2019-01-29T12:31:56.274Z,40.97
2019-01-29T12:32:56.265Z,40.97
2019-01-29T12:33:56.264Z,40.58
2019-01-29T12:34:56.247Z,40.58
2019-01-29T12:35:56.238Z,40.78
2019-01-29T12:36:56.226Z,40.58
2019-01-29T12:37:56.214Z,40.37
2019-01-29T12:38:56.217Z,40.37
2019-01-29T12:39:56.194Z,40.67
2019-01-29T12:40:56.195Z,41.08
2019-01-29T12:41:56.175Z,40.67
2019-01-29T12:42:56.159Z,40.78
2019-01-29T12:43:56.166Z,41.47
2019-01-29T12:44:56.140Z,40.58
2019-01-29T12:45:56.127Z,41.47
2019-01-29T12:46:56.120Z,41.08
2019-01-29T12:47:56.105Z,40.99
2019-01-29T12:48:56.120Z,41.49
2019-01-29T12:49:56.089Z,42.27
2019-01-29T12:50:56.078Z,41.69
2019-01-29T12:51:56.072Z,42.10